Time;durP1;ratioP1;P1;durP2;ratioP2;P2;SDS_P1;SDS_P2;PMS_P1;PMS_P2;Temp;Humidity;BMP_temperature;BMP_pressure;BME280_temperature;BME280_humidity;BME280_pressure;Samples;Min_cycle;Max_cycle;Signal;HPM_P1;HPM_P2
2022/10/18 00:00:20;;;;;;;5.80;1.60;;;21.50;99.90;;;;;;5014714;28;20973;-82
2022/10/18 00:02:47;;;;;;;4.60;1.38;;;21.20;99.90;;;;;;5014497;28;20395;-82
2022/10/18 00:05:14;;;;;;;4.55;1.20;;;21.10;99.90;;;;;;5014353;28;20375;-82
2022/10/18 00:07:41;;;;;;;4.55;1.30;;;21.20;99.90;;;;;;5014108;28;20929;-84
2022/10/18 00:10:09;;;;;;;6.03;1.40;;;21.30;99.90;;;;;;5014437;28;20851;-82
2022/10/18 00:12:37;;;;;;;5.50;1.20;;;21.50;99.90;;;;;;5014161;28;20860;-83
2022/10/18 00:15:06;;;;;;;4.13;1.40;;;21.80;99.90;;;;;;5015499;28;20378;-85
2022/10/18 00:17:38;;;;;;;5.50;1.20;;;22.30;99.90;;;;;;5014444;28;20371;-84
2022/10/18 00:20:06;;;;;;;4.22;1.30;;;22.60;99.90;;;;;;5014083;28;20376;-84
2022/10/18 00:22:38;;;;;;;3.58;1.25;;;22.90;99.90;;;;;;5014004;28;20472;-84
2022/10/18 00:25:07;;;;;;;4.80;1.37;;;23.20;98.70;;;;;;5013943;28;20474;-83
2022/10/18 00:27:34;;;;;;;5.20;1.30;;;23.10;98.30;;;;;;5013811;28;20434;-82
2022/10/18 00:30:01;;;;;;;5.53;1.27;;;22.70;98.70;;;;;;5014170;28;20392;-81
2022/10/18 00:32:28;;;;;;;6.50;1.50;;;22.30;99.90;;;;;;5014266;28;20458;-83
2022/10/18 00:34:55;;;;;;;4.82;1.40;;;22.10;99.90;;;;;;5013906;28;20863;-83
2022/10/18 00:37:22;;;;;;;4.40;1.42;;;22.00;99.90;;;;;;5013562;28;20367;-84
2022/10/18 00:39:49;;;;;;;4.38;1.42;;;22.00;99.90;;;;;;5013796;28;20874;-82
2022/10/18 00:42:18;;;;;;;5.47;1.50;;;22.00;99.90;;;;;;5013523;28;20383;-82
2022/10/18 00:44:45;;;;;;;6.03;1.42;;;22.00;99.90;;;;;;5014147;28;20376;-82
2022/10/18 00:47:16;;;;;;;6.77;1.50;;;21.90;99.90;;;;;;5015423;28;20534;-82
2022/10/18 00:49:55;;;;;;;7.15;1.50;;;21.60;99.90;;;;;;5013637;28;20378;-84
2022/10/18 00:52:33;;;;;;;4.75;1.23;;;21.40;99.90;;;;;;5012455;28;20429;-84
2022/10/18 00:55:03;;;;;;;4.32;1.20;;;21.20;99.90;;;;;;5014159;28;20729;-84
2022/10/18 00:57:31;;;;;;;5.72;1.33;;;21.00;99.90;;;;;;5014538;28;20437;-82
2022/10/18 00:59:58;;;;;;;4.50;1.27;;;20.80;99.90;;;;;;5014019;28;20458;-82
2022/10/18 01:02:26;;;;;;;4.57;1.42;;;20.70;99.90;;;;;;5018089;28;20375;-83
2022/10/18 01:04:53;;;;;;;5.03;1.33;;;20.70;99.90;;;;;;5017918;28;20383;-81
2022/10/18 01:07:27;;;;;;;5.00;1.33;;;20.70;99.90;;;;;;5016173;28;20410;-81
2022/10/18 01:10:06;;;;;;;3.40;1.10;;;20.90;99.90;;;;;;5016391;28;20406;-83
2022/10/18 01:13:13;;;;;;;6.85;1.38;;;21.10;99.90;;;;;;5014058;28;20775;-81
2022/10/18 01:16:10;;;;;;;5.35;1.30;;;21.20;99.90;;;;;;5013734;28;20367;-82
2022/10/18 01:18:44;;;;;;;4.82;1.30;;;21.30;99.90;;;;;;5012620;28;20370;-81
2022/10/18 01:21:17;;;;;;;5.95;1.40;;;21.50;99.90;;;;;;5011965;28;20747;-81
2022/10/18 01:24:09;;;;;;;5.15;1.30;;;21.40;99.90;;;;;;5018672;28;20375;-84
2022/10/18 01:27:12;;;;;;;10.95;1.48;;;21.50;99.90;;;;;;5018554;28;20460;-85
2022/10/18 01:30:03;;;;;;;18.50;2.03;;;21.90;99.90;;;;;;5017873;28;20415;-82
2022/10/18 01:32:44;;;;;;;9.57;1.50;;;22.50;99.90;;;;;;5044925;28;20419;-82
2022/10/18 01:35:37;;;;;;;11.30;1.52;;;22.90;99.90;;;;;;5013246;28;20363;-85
2022/10/18 01:38:10;;;;;;;5.47;1.30;;;23.10;98.70;;;;;;5013049;28;20379;-80
2022/10/18 01:40:40;;;;;;;5.43;1.30;;;22.90;97.80;;;;;;5013415;28;20371;-84
2022/10/18 01:43:10;;;;;;;3.42;1.10;;;22.50;98.30;;;;;;5013181;28;20450;-84
2022/10/18 01:45:37;;;;;;;4.05;1.25;;;22.00;99.30;;;;;;5012749;28;20386;-85
2022/10/18 01:48:04;;;;;;;2.77;0.87;;;21.60;99.90;;;;;;5013150;28;20383;-87
2022/10/18 01:50:33;;;;;;;6.57;1.13;;;21.20;99.90;;;;;;5012940;28;20371;-82
2022/10/18 01:53:01;;;;;;;5.78;1.25;;;20.90;99.90;;;;;;5042215;28;20471;-84
2022/10/18 01:55:53;;;;;;;5.28;1.27;;;20.60;99.90;;;;;;5044979;28;20429;-88
2022/10/18 01:58:55;;;;;;;5.47;1.20;;;20.40;99.90;;;;;;5013141;28;20454;-84
2022/10/18 02:01:39;;;;;;;5.35;1.30;;;20.20;99.90;;;;;;5030793;28;20424;-88
2022/10/18 02:04:26;;;;;;;5.80;1.33;;;19.90;99.90;;;;;;5031425;28;20381;-83
2022/10/18 02:07:03;;;;;;;4.93;1.27;;;19.70;99.90;;;;;;5031505;28;20967;-82
2022/10/18 02:10:00;;;;;;;4.50;1.20;;;19.50;99.90;;;;;;5031622;28;20400;-85
2022/10/18 02:12:30;;;;;;;3.47;1.20;;;19.20;99.90;;;;;;5030991;28;20456;-86
2022/10/18 02:14:59;;;;;;;3.83;1.10;;;19.10;99.90;;;;;;5031548;28;20786;-81
2022/10/18 02:17:29;;;;;;;5.00;1.20;;;18.90;99.90;;;;;;5031153;28;20975;-84
2022/10/18 02:19:57;;;;;;;5.13;1.30;;;18.90;99.90;;;;;;5051025;28;20488;-86
2022/10/18 02:22:28;;;;;;;4.28;1.30;;;18.90;99.90;;;;;;5040883;28;20719;-81
2022/10/18 02:24:59;;;;;;;4.70;1.20;;;18.80;99.90;;;;;;5040089;28;20402;-80
2022/10/18 02:27:26;;;;;;;3.50;1.20;;;18.90;99.90;;;;;;5043437;28;20413;-80
2022/10/18 02:29:53;;;;;;;1.80;0.80;;;18.90;99.90;;;;;;5042941;28;20785;-81
2022/10/18 02:32:33;;;;;;;3.17;0.90;;;18.90;99.90;;;;;;5044196;28;20389;-80
2022/10/18 02:35:03;;;;;;;3.70;0.80;;;18.90;99.90;;;;;;5051769;28;20437;-81
2022/10/18 02:37:35;;;;;;;3.65;1.10;;;18.90;99.90;;;;;;5052761;28;20393;-87
2022/10/18 02:40:04;;;;;;;2.60;1.00;;;18.80;99.90;;;;;;5036050;28;20466;-85
2022/10/18 02:42:49;;;;;;;2.90;1.00;;;18.80;99.90;;;;;;5035777;28;20391;-81
2022/10/18 02:45:17;;;;;;;3.38;1.08;;;18.70;99.90;;;;;;5037713;28;20363;-84
2022/10/18 02:47:44;;;;;;;3.63;0.93;;;18.60;99.90;;;;;;5037526;28;20430;-79
2022/10/18 02:50:12;;;;;;;3.78;1.02;;;18.60;99.90;;;;;;5032456;28;20375;-80
2022/10/18 02:52:39;;;;;;;3.70;1.00;;;18.60;99.90;;;;;;5016559;28;20383;-84
2022/10/18 02:55:07;;;;;;;4.57;1.35;;;18.60;99.90;;;;;;5016313;28;20719;-81
2022/10/18 02:57:34;;;;;;;6.10;1.35;;;18.60;99.90;;;;;;5016074;28;20451;-80
2022/10/18 03:00:01;;;;;;;4.88;1.40;;;18.80;99.90;;;;;;5015829;28;20957;-81
2022/10/18 03:02:28;;;;;;;4.97;1.40;;;18.80;99.90;;;;;;5015915;28;20462;-79
2022/10/18 03:04:55;;;;;;;6.03;1.70;;;18.90;99.90;;;;;;5016033;28;20410;-80
2022/10/18 03:07:22;;;;;;;4.53;1.58;;;19.00;99.90;;;;;;5018252;28;20549;-80
2022/10/18 03:09:49;;;;;;;4.50;1.23;;;19.20;99.90;;;;;;5020284;28;20371;-79
2022/10/18 03:12:16;;;;;;;3.80;1.13;;;19.40;99.90;;;;;;5016936;28;20379;-80
2022/10/18 03:14:44;;;;;;;3.88;1.30;;;19.40;99.90;;;;;;5015547;28;20394;-81
2022/10/18 03:17:11;;;;;;;4.13;1.40;;;19.50;99.90;;;;;;5015508;28;20380;-80
2022/10/18 03:19:38;;;;;;;3.77;1.20;;;19.60;99.90;;;;;;5015165;28;20443;-81
2022/10/18 03:22:05;;;;;;;3.80;1.23;;;19.70;99.90;;;;;;5015241;28;20743;-82
2022/10/18 03:24:32;;;;;;;3.28;1.40;;;19.70;99.90;;;;;;5046712;28;20394;-82
2022/10/18 03:26:59;;;;;;;7.10;1.50;;;19.90;99.90;;;;;;5015308;28;20414;-82
2022/10/18 03:29:26;;;;;;;4.47;1.20;;;19.90;99.90;;;;;;5015343;28;20464;-82
2022/10/18 03:31:53;;;;;;;4.13;1.10;;;20.10;99.90;;;;;;5014142;28;20506;-82
2022/10/18 03:34:20;;;;;;;3.70;1.20;;;20.20;99.90;;;;;;5014300;28;20791;-81
2022/10/18 03:36:47;;;;;;;5.47;1.30;;;20.30;99.90;;;;;;5015142;28;20411;-81
2022/10/18 03:39:14;;;;;;;5.15;1.23;;;20.30;99.90;;;;;;5014996;28;20731;-83
2022/10/18 03:41:41;;;;;;;6.25;1.30;;;20.40;99.90;;;;;;5014503;28;20383;-83
2022/10/18 03:44:09;;;;;;;2.92;1.10;;;20.60;99.90;;;;;;5014841;28;20380;-84
2022/10/18 03:46:36;;;;;;;5.10;1.30;;;20.80;99.90;;;;;;5014748;28;20891;-82
2022/10/18 03:49:03;;;;;;;4.40;1.30;;;20.80;99.90;;;;;;5014622;28;20418;-84
2022/10/18 03:51:30;;;;;;;5.20;1.20;;;20.80;99.90;;;;;;5014871;28;20371;-85
2022/10/18 03:53:57;;;;;;;6.63;1.50;;;20.90;99.90;;;;;;5015253;28;20375;-85
2022/10/18 03:56:24;;;;;;;4.03;1.50;;;20.90;99.90;;;;;;5014569;28;20440;-83
2022/10/18 03:58:51;;;;;;;4.07;1.50;;;21.00;99.90;;;;;;5014597;28;20380;-82
2022/10/18 04:01:18;;;;;;;5.70;1.65;;;21.00;99.90;;;;;;5014804;28;20381;-84
2022/10/18 04:03:45;;;;;;;5.88;1.40;;;21.20;99.90;;;;;;5014771;28;20383;-84
2022/10/18 04:06:12;;;;;;;4.78;1.40;;;21.50;99.90;;;;;;5014650;28;20391;-84
2022/10/18 04:08:39;;;;;;;6.60;1.40;;;21.80;99.90;;;;;;5014513;28;20743;-84
2022/10/18 04:11:10;;;;;;;4.80;1.60;;;21.80;99.90;;;;;;5014755;28;20381;-82
2022/10/18 04:13:37;;;;;;;5.30;1.77;;;21.80;99.90;;;;;;5017695;28;20382;-84
2022/10/18 04:16:04;;;;;;;7.03;1.75;;;22.10;99.90;;;;;;5017929;28;20390;-80
2022/10/18 04:18:31;;;;;;;5.38;1.60;;;22.30;99.90;;;;;;5019736;28;20421;-82
2022/10/18 04:20:58;;;;;;;4.28;1.67;;;22.50;99.90;;;;;;5018180;28;20379;-83
2022/10/18 04:23:25;;;;;;;6.10;1.70;;;22.50;99.90;;;;;;5014306;28;20378;-84
2022/10/18 04:25:52;;;;;;;5.07;1.50;;;22.30;99.90;;;;;;5013814;28;20403;-83
2022/10/18 04:28:19;;;;;;;6.03;1.73;;;22.30;99.90;;;;;;5014185;28;20387;-82
2022/10/18 04:30:51;;;;;;;5.13;1.70;;;22.30;99.90;;;;;;5013835;28;20437;-80
2022/10/18 04:33:19;;;;;;;5.15;1.80;;;22.00;99.90;;;;;;5014017;28;20430;-82
2022/10/18 04:35:46;;;;;;;4.83;1.70;;;21.80;99.90;;;;;;5014618;28;20477;-80
2022/10/18 04:38:13;;;;;;;5.25;1.52;;;21.80;99.90;;;;;;5013693;28;20425;-80
2022/10/18 04:40:41;;;;;;;4.35;1.90;;;21.70;99.90;;;;;;5013694;28;20867;-82
2022/10/18 04:43:08;;;;;;;6.20;1.70;;;21.70;99.90;;;;;;5013298;28;20387;-82
2022/10/18 04:45:35;;;;;;;5.88;2.10;;;21.70;99.90;;;;;;5014104;28;20893;-81
2022/10/18 04:48:02;;;;;;;4.70;1.67;;;21.70;99.90;;;;;;5014244;28;20387;-80
2022/10/18 04:50:29;;;;;;;3.80;1.50;;;21.60;99.90;;;;;;5013709;28;20458;-81
2022/10/18 04:52:56;;;;;;;6.85;1.80;;;21.50;99.90;;;;;;5013781;28;20379;-82
2022/10/18 04:55:23;;;;;;;3.85;1.80;;;21.40;99.90;;;;;;5013350;28;20382;-81
2022/10/18 04:57:50;;;;;;;5.25;1.92;;;21.30;99.90;;;;;;5013357;28;20386;-84
2022/10/18 05:00:17;;;;;;;6.10;2.30;;;21.20;99.90;;;;;;5013545;28;20433;-82
2022/10/18 05:02:44;;;;;;;8.13;2.10;;;21.10;99.90;;;;;;5017693;28;20383;-81
2022/10/18 05:05:11;;;;;;;6.38;1.80;;;21.10;99.90;;;;;;5013678;28;20723;-81
2022/10/18 05:07:38;;;;;;;5.77;2.20;;;21.00;99.90;;;;;;5013338;28;20431;-81
2022/10/18 05:10:05;;;;;;;5.47;1.83;;;21.00;99.90;;;;;;5013235;28;20375;-81
2022/10/18 05:12:32;;;;;;;5.70;1.67;;;21.00;99.90;;;;;;5013308;28;20386;-81
2022/10/18 05:14:59;;;;;;;6.10;1.70;;;20.90;99.90;;;;;;5013153;28;20371;-81
2022/10/18 05:17:26;;;;;;;6.40;2.00;;;20.90;99.90;;;;;;5013439;28;20383;-81
2022/10/18 05:19:53;;;;;;;5.13;1.70;;;20.90;99.90;;;;;;5013091;28;20407;-81
2022/10/18 05:22:20;;;;;;;6.30;1.90;;;20.90;99.90;;;;;;5012964;28;20473;-80
2022/10/18 05:24:47;;;;;;;7.22;1.92;;;20.90;99.90;;;;;;5012707;28;20414;-81
2022/10/18 05:27:14;;;;;;;6.00;2.05;;;20.90;99.90;;;;;;5012989;28;20414;-81
2022/10/18 05:29:41;;;;;;;5.38;2.00;;;20.80;99.90;;;;;;5013123;28;20379;-82
2022/10/18 05:32:08;;;;;;;5.70;2.13;;;20.80;99.90;;;;;;5013186;28;20375;-82
2022/10/18 05:34:35;;;;;;;6.10;2.38;;;20.80;99.90;;;;;;5013188;28;20403;-82
2022/10/18 05:37:02;;;;;;;6.57;2.33;;;20.80;99.90;;;;;;5012994;28;20437;-82
2022/10/18 05:39:29;;;;;;;5.65;2.60;;;20.80;99.90;;;;;;5012974;28;20450;-82
2022/10/18 05:41:56;;;;;;;7.03;2.70;;;20.70;99.90;;;;;;5014523;28;20727;-82
2022/10/18 05:44:23;;;;;;;8.07;2.90;;;20.70;99.90;;;;;;5013257;28;20375;-82
2022/10/18 05:46:50;;;;;;;8.30;2.88;;;20.70;99.90;;;;;;5012932;28;20493;-81
2022/10/18 05:49:18;;;;;;;7.35;2.53;;;20.70;99.90;;;;;;5013672;28;20386;-82
2022/10/18 05:51:45;;;;;;;9.25;2.80;;;20.70;99.90;;;;;;5011844;28;20839;-82
2022/10/18 05:54:12;;;;;;;9.05;2.50;;;20.80;99.90;;;;;;5014175;28;20415;-83
2022/10/18 05:56:40;;;;;;;9.90;2.53;;;20.70;99.90;;;;;;5016612;28;20854;-83
2022/10/18 05:59:10;;;;;;;7.93;2.25;;;20.70;99.90;;;;;;5017827;28;20728;-83
2022/10/18 06:01:39;;;;;;;6.57;2.20;;;20.60;99.90;;;;;;5017105;28;20378;-81
2022/10/18 06:04:06;;;;;;;6.45;2.10;;;20.60;99.90;;;;;;5017086;28;20384;-80
2022/10/18 06:06:34;;;;;;;6.60;2.20;;;20.60;99.90;;;;;;5016907;28;20395;-84
2022/10/18 06:09:02;;;;;;;6.13;2.00;;;20.50;99.90;;;;;;5017449;28;20383;-82
2022/10/18 06:11:29;;;;;;;4.97;1.90;;;20.50;99.90;;;;;;5018535;28;20410;-84
2022/10/18 06:13:57;;;;;;;6.55;1.83;;;20.40;99.90;;;;;;5017699;28;20379;-86
2022/10/18 06:16:26;;;;;;;8.52;2.10;;;20.30;99.90;;;;;;5017218;28;20375;-81
2022/10/18 06:18:56;;;;;;;8.10;2.10;;;20.20;99.90;;;;;;5016553;28;20387;-82
2022/10/18 06:21:24;;;;;;;5.80;2.10;;;20.00;99.90;;;;;;5017822;28;20360;-81
2022/10/18 06:23:56;;;;;;;7.03;2.10;;;19.80;99.90;;;;;;5016754;28;20379;-85
2022/10/18 06:26:24;;;;;;;4.88;1.90;;;19.70;99.90;;;;;;5017750;28;20450;-85
2022/10/18 06:28:51;;;;;;;8.38;2.35;;;19.70;99.90;;;;;;5022913;28;20375;-83
2022/10/18 06:31:20;;;;;;;8.35;2.10;;;19.60;99.90;;;;;;5017811;28;20364;-80
2022/10/18 06:33:47;;;;;;;7.20;1.90;;;19.50;99.90;;;;;;5021736;28;20394;-83
2022/10/18 06:36:17;;;;;;;8.30;1.90;;;19.50;99.90;;;;;;5055753;28;20418;-83
2022/10/18 06:38:51;;;;;;;8.50;1.95;;;19.50;99.90;;;;;;5022212;28;20417;-81
2022/10/18 06:41:19;;;;;;;6.60;1.75;;;19.50;99.90;;;;;;5020380;28;20382;-79
2022/10/18 06:43:56;;;;;;;7.32;2.05;;;19.40;99.90;;;;;;5016455;28;20914;-83
2022/10/18 06:46:26;;;;;;;7.75;1.95;;;19.40;99.90;;;;;;5017008;28;20465;-80
2022/10/18 06:48:53;;;;;;;7.47;2.22;;;19.40;99.90;;;;;;5016668;28;20418;-84
2022/10/18 06:51:20;;;;;;;7.97;1.98;;;19.30;99.90;;;;;;5016368;28;20375;-80
2022/10/18 06:53:47;;;;;;;6.65;1.90;;;19.40;99.90;;;;;;5016119;28;20383;-82
2022/10/18 06:56:15;;;;;;;7.38;2.05;;;19.30;99.90;;;;;;5019120;28;20390;-82
2022/10/18 06:58:44;;;;;;;8.73;2.15;;;19.40;99.90;;;;;;5016049;28;20383;-80
2022/10/18 07:01:15;;;;;;;9.07;2.28;;;19.30;99.90;;;;;;5016383;28;20378;-80
2022/10/18 07:03:44;;;;;;;8.55;2.22;;;19.30;99.90;;;;;;5020630;28;20890;-82
2022/10/18 07:06:13;;;;;;;9.82;2.83;;;19.30;99.90;;;;;;5015796;28;20407;-78
2022/10/18 07:08:48;;;;;;;7.30;2.80;;;19.30;99.90;;;;;;5019133;28;20396;-80
2022/10/18 07:11:18;;;;;;;8.18;2.80;;;19.30;99.90;;;;;;5017164;28;20379;-83
2022/10/18 07:13:45;;;;;;;6.90;2.50;;;19.20;99.90;;;;;;5016964;28;20470;-80
2022/10/18 07:16:15;;;;;;;8.00;2.30;;;19.20;99.90;;;;;;5016203;28;20445;-81
2022/10/18 07:18:45;;;;;;;12.50;2.77;;;19.20;99.90;;;;;;5015656;28;20957;-82
2022/10/18 07:21:14;;;;;;;7.30;2.38;;;19.10;99.90;;;;;;5020514;28;20406;-88
2022/10/18 07:23:44;;;;;;;8.80;2.50;;;19.10;99.90;;;;;;5051576;28;20407;-81
2022/10/18 07:26:17;;;;;;;9.98;2.20;;;19.00;99.90;;;;;;5020058;28;20399;-82
2022/10/18 07:28:47;;;;;;;7.32;2.75;;;19.00;99.90;;;;;;5020737;28;20378;-80
2022/10/18 07:31:14;;;;;;;8.43;2.42;;;18.90;99.90;;;;;;5020396;28;20403;-81
2022/10/18 07:33:44;;;;;;;8.77;2.65;;;18.90;99.90;;;;;;5016373;28;20466;-79
2022/10/18 07:36:12;;;;;;;7.47;2.53;;;18.90;99.90;;;;;;5015622;28;20395;-81
2022/10/18 07:38:40;;;;;;;9.40;2.60;;;18.90;99.90;;;;;;5015445;28;20455;-81
2022/10/18 07:41:09;;;;;;;9.25;2.50;;;18.90;99.90;;;;;;5015496;28;20379;-80
2022/10/18 07:43:36;;;;;;;7.83;2.67;;;18.80;99.90;;;;;;5015236;28;20371;-84
2022/10/18 07:46:05;;;;;;;7.10;2.57;;;18.90;99.90;;;;;;5014915;28;20420;-81
2022/10/18 07:48:32;;;;;;;7.55;2.55;;;18.80;99.90;;;;;;5015283;28;20426;-81
2022/10/18 07:51:00;;;;;;;7.78;2.47;;;18.80;99.90;;;;;;5017151;28;20886;-81
2022/10/18 07:53:28;;;;;;;6.93;2.40;;;18.80;99.90;;;;;;5016103;28;20534;-81
2022/10/18 07:56:06;;;;;;;6.87;2.43;;;18.80;99.90;;;;;;5015402;28;20383;-81
2022/10/18 07:58:34;;;;;;;5.90;2.25;;;18.80;99.90;;;;;;5015518;28;20776;-81
2022/10/18 08:01:05;;;;;;;7.05;2.30;;;18.80;99.90;;;;;;5015306;28;20375;-81
2022/10/18 08:03:33;;;;;;;7.30;2.40;;;18.70;99.90;;;;;;5014853;28;20388;-81
2022/10/18 08:06:00;;;;;;;7.72;2.50;;;18.60;99.90;;;;;;5014664;28;20459;-81
2022/10/18 08:08:28;;;;;;;7.70;2.38;;;18.50;99.90;;;;;;5014508;28;20383;-83
2022/10/18 08:11:00;;;;;;;6.28;2.28;;;18.40;99.90;;;;;;5014985;28;20379;-83
2022/10/18 08:13:28;;;;;;;5.45;2.20;;;18.40;99.90;;;;;;5015877;28;20382;-80
2022/10/18 08:16:04;;;;;;;5.80;2.25;;;18.20;99.90;;;;;;5014801;28;20874;-81
2022/10/18 08:18:31;;;;;;;6.57;2.55;;;18.10;99.90;;;;;;5014943;28;20887;-82
2022/10/18 08:21:04;;;;;;;8.00;2.70;;;18.00;99.90;;;;;;5015286;28;20371;-81
2022/10/18 08:23:31;;;;;;;6.80;2.63;;;17.90;99.90;;;;;;5014629;28;20398;-81
2022/10/18 08:26:02;;;;;;;8.30;2.97;;;17.80;99.90;;;;;;5015404;28;20410;-82
2022/10/18 08:28:30;;;;;;;6.35;2.50;;;17.70;99.90;;;;;;5015589;28;20398;-82
2022/10/18 08:31:08;;;;;;;7.32;2.35;;;17.70;99.90;;;;;;5015464;28;20382;-82
2022/10/18 08:33:35;;;;;;;5.75;2.40;;;17.60;99.90;;;;;;5015005;28;20376;-86
2022/10/18 08:36:07;;;;;;;7.15;2.50;;;17.60;99.90;;;;;;5015821;28;20470;-82
2022/10/18 08:38:36;;;;;;;7.57;2.40;;;17.60;99.90;;;;;;5014953;28;20429;-83
2022/10/18 08:41:27;;;;;;;6.65;2.50;;;17.60;99.90;;;;;;5015040;28;20377;-81
2022/10/18 08:44:20;;;;;;;8.70;2.30;;;17.70;99.90;;;;;;5014775;28;20386;-82
2022/10/18 08:46:54;;;;;;;5.07;2.10;;;17.60;99.90;;;;;;5014214;28;20402;-85
2022/10/18 08:50:03;;;;;;;6.03;2.13;;;17.60;99.90;;;;;;5025137;28;20375;-83
2022/10/18 08:52:42;;;;;;;6.95;2.50;;;17.60;99.90;;;;;;5026489;28;20372;-85
2022/10/18 08:55:27;;;;;;;5.88;2.40;;;17.60;99.90;;;;;;5015207;28;20382;-83
2022/10/18 08:57:57;;;;;;;6.40;2.50;;;17.50;99.90;;;;;;5019556;28;20445;-86
2022/10/18 09:00:28;;;;;;;6.22;2.60;;;17.50;99.90;;;;;;5015592;28;20385;-82
2022/10/18 09:03:13;;;;;;;6.75;2.70;;;17.50;99.90;;;;;;5014400;28;20409;-84
2022/10/18 09:05:46;;;;;;;7.40;2.57;;;17.50;99.90;;;;;;5014023;28;20403;-82
2022/10/18 09:08:38;;;;;;;6.67;2.60;;;17.50;99.90;;;;;;5015048;28;20437;-83
2022/10/18 09:11:24;;;;;;;5.70;2.38;;;17.50;99.90;;;;;;5013984;28;20383;-82
2022/10/18 09:14:06;;;;;;;6.18;2.30;;;17.40;99.90;;;;;;5013969;28;20355;-83
2022/10/18 09:17:05;;;;;;;7.30;2.35;;;17.40;99.90;;;;;;5015702;28;20376;-81
2022/10/18 09:19:54;;;;;;;7.55;2.40;;;17.40;99.90;;;;;;5033956;28;20478;-85
2022/10/18 09:22:44;;;;;;;9.02;2.25;;;17.30;99.90;;;;;;5036357;28;20400;-86
2022/10/18 09:25:42;;;;;;;6.47;2.38;;;17.40;99.90;;;;;;5036315;28;20421;-85
2022/10/18 09:28:15;;;;;;;8.13;2.20;;;17.30;99.90;;;;;;5032537;28;20405;-86
2022/10/18 09:31:01;;;;;;;5.23;1.93;;;17.30;99.90;;;;;;5030851;28;20374;-85
2022/10/18 09:33:49;;;;;;;10.77;2.00;;;17.90;99.90;;;;;;5036559;28;20483;-85
2022/10/18 09:36:31;;;;;;;5.67;2.13;;;17.20;99.90;;;;;;5036277;28;20381;-84
2022/10/18 09:39:15;;;;;;;7.10;2.20;;;17.20;99.90;;;;;;5036482;28;20876;-84
2022/10/18 09:42:14;;;;;;;5.35;2.03;;;17.20;99.90;;;;;;5036038;28;20780;-85
2022/10/18 09:44:50;;;;;;;6.60;2.17;;;17.20;99.90;;;;;;4978128;28;20399;-81
2022/10/18 09:47:37;;;;;;;6.30;2.08;;;17.20;99.90;;;;;;4977097;28;20410;-86
2022/10/18 09:50:31;;;;;;;6.73;2.20;;;17.20;99.90;;;;;;4977343;28;20509;-80
2022/10/18 09:53:32;;;;;;;6.68;1.90;;;17.20;99.90;;;;;;4977559;28;20882;-87
2022/10/18 09:56:30;;;;;;;6.35;1.90;;;17.20;99.90;;;;;;4977510;28;20381;-83
2022/10/18 09:58:58;;;;;;;5.32;1.90;;;17.20;99.90;;;;;;4978292;28;20379;-84
2022/10/18 10:01:46;;;;;;;6.53;2.20;;;17.10;99.90;;;;;;4977500;28;20387;-85
2022/10/18 10:04:14;;;;;;;6.80;2.20;;;17.10;99.90;;;;;;4975844;28;20378;-85
2022/10/18 10:06:50;;;;;;;6.63;2.10;;;17.10;99.90;;;;;;4975696;28;20441;-85
2022/10/18 10:09:20;;;;;;;7.43;2.30;;;17.10;99.90;;;;;;4977882;28;20429;-81
2022/10/18 10:11:54;;;;;;;7.85;2.30;;;17.10;99.90;;;;;;4972857;28;20806;-87
2022/10/18 10:14:26;;;;;;;7.78;2.20;;;17.10;99.90;;;;;;4948227;28;20387;-86
2022/10/18 10:17:29;;;;;;;7.38;2.50;;;17.10;99.90;;;;;;4981222;28;20779;-87
2022/10/18 10:20:16;;;;;;;7.70;2.72;;;17.10;99.90;;;;;;4955006;29;20428;-86
2022/10/18 10:22:46;;;;;;;7.50;2.80;;;17.10;99.90;;;;;;5014270;28;20383;-84
2022/10/18 10:25:33;;;;;;;8.07;2.80;;;17.10;99.90;;;;;;4995424;28;20394;-87
2022/10/18 10:28:15;;;;;;;7.90;3.23;;;17.00;99.90;;;;;;5012171;28;20415;-87
2022/10/18 10:30:44;;;;;;;6.53;2.90;;;17.00;99.90;;;;;;5012284;28;20433;-87
2022/10/18 10:33:31;;;;;;;8.18;3.10;;;17.00;99.90;;;;;;4995766;28;20454;-86
2022/10/18 10:36:01;;;;;;;8.23;3.35;;;17.00;99.90;;;;;;5012506;28;20379;-86
2022/10/18 10:38:29;;;;;;;11.07;3.33;;;17.00;99.90;;;;;;5029074;28;20837;-86
2022/10/18 10:41:01;;;;;;;8.02;3.38;;;17.00;99.90;;;;;;5034240;28;20386;-88
2022/10/18 10:43:35;;;;;;;8.77;3.22;;;17.00;99.90;;;;;;5020469;28;20402;-86
2022/10/18 10:46:10;;;;;;;10.55;3.17;;;16.90;99.90;;;;;;5019902;28;20374;-85
2022/10/18 10:48:51;;;;;;;9.93;3.88;;;16.90;99.90;;;;;;5019732;28;20494;-86
2022/10/18 10:51:32;;;;;;;7.95;3.50;;;16.90;99.90;;;;;;5016258;28;20387;-87
2022/10/18 10:54:01;;;;;;;9.35;4.03;;;16.90;99.90;;;;;;5015218;28;20375;-86
2022/10/18 10:56:35;;;;;;;8.65;3.60;;;16.80;99.90;;;;;;5015636;28;20449;-87
2022/10/18 10:59:25;;;;;;;6.72;3.55;;;16.90;99.90;;;;;;5020213;28;20371;-84
2022/10/18 11:02:19;;;;;;;11.95;3.95;;;16.80;99.90;;;;;;5017664;28;20411;-84
2022/10/18 11:04:48;;;;;;;7.93;3.80;;;16.80;99.90;;;;;;5016872;28;20376;-84
2022/10/18 11:07:30;;;;;;;8.20;3.80;;;16.80;99.90;;;;;;5020302;28;20825;-81
2022/10/18 11:10:14;;;;;;;8.63;3.60;;;16.80;99.90;;;;;;5016694;28;20375;-85
2022/10/18 11:12:53;;;;;;;8.80;3.75;;;16.80;99.90;;;;;;5016516;28;20379;-83
2022/10/18 11:15:44;;;;;;;7.95;3.85;;;16.80;99.90;;;;;;5016599;28;20393;-81
2022/10/18 11:18:22;;;;;;;7.47;3.60;;;16.70;99.90;;;;;;5016106;28;20441;-81
2022/10/18 11:20:55;;;;;;;9.35;3.80;;;16.70;99.90;;;;;;5022249;28;20400;-86
2022/10/18 11:23:30;;;;;;;9.20;3.60;;;16.70;99.90;;;;;;5018513;28;20380;-84
2022/10/18 11:26:12;;;;;;;9.73;3.90;;;16.70;99.90;;;;;;5016124;28;20474;-84
2022/10/18 11:29:01;;;;;;;9.30;3.55;;;16.60;99.90;;;;;;5014937;28;20391;-84
2022/10/18 11:31:39;;;;;;;11.02;3.53;;;16.50;99.90;;;;;;5016591;28;20442;-86
2022/10/18 11:34:42;;;;;;;10.63;3.50;;;16.50;99.90;;;;;;5016109;28;20407;-79
2022/10/18 11:37:43;;;;;;;10.13;3.40;;;16.50;99.90;;;;;;5017044;28;20375;-83
2022/10/18 11:40:31;;;;;;;8.48;3.25;;;16.50;99.90;;;;;;5016827;28;20379;-82
2022/10/18 11:43:13;;;;;;;11.88;3.88;;;16.50;99.90;;;;;;5015734;28;20363;-84
2022/10/18 11:46:04;;;;;;;20.98;4.60;;;16.50;99.90;;;;;;5014859;28;20383;-84
2022/10/18 11:49:00;;;;;;;34.90;5.80;;;16.50;99.90;;;;;;5015165;28;20521;-81
2022/10/18 11:51:49;;;;;;;29.88;5.38;;;16.50;99.90;;;;;;5032153;28;20722;-83
2022/10/18 11:54:34;;;;;;;24.70;4.60;;;16.60;99.90;;;;;;5032371;28;20385;-79
2022/10/18 11:57:20;;;;;;;15.93;4.78;;;16.70;99.90;;;;;;5033178;28;20906;-83
2022/10/18 12:00:02;;;;;;;19.48;4.47;;;16.70;99.90;;;;;;5036159;28;20393;-81
2022/10/18 12:02:47;;;;;;;15.30;4.25;;;16.70;99.90;;;;;;5033270;28;20385;-84
2022/10/18 12:05:15;;;;;;;14.67;4.20;;;16.80;99.90;;;;;;5034427;28;20405;-81
2022/10/18 12:08:00;;;;;;;11.70;3.40;;;16.90;99.90;;;;;;5034151;28;20873;-80
2022/10/18 12:10:31;;;;;;;12.52;3.20;;;16.90;99.90;;;;;;5034472;28;20730;-84
2022/10/18 12:13:03;;;;;;;8.68;3.08;;;16.90;99.90;;;;;;5034794;28;20843;-85
2022/10/18 12:15:34;;;;;;;14.90;3.20;;;16.90;99.90;;;;;;5013655;28;20388;-84
2022/10/18 12:18:25;;;;;;;41.83;5.72;;;16.80;99.90;;;;;;5012318;28;20938;-78
2022/10/18 12:20:55;;;;;;;29.87;4.67;;;16.80;99.90;;;;;;5011946;28;20429;-83
2022/10/18 12:23:31;;;;;;;25.20;3.87;;;16.70;99.90;;;;;;5012235;28;20425;-84
2022/10/18 12:26:09;;;;;;;16.52;3.75;;;16.70;99.90;;;;;;5011740;28;21011;-85
2022/10/18 12:29:12;;;;;;;13.75;3.35;;;16.70;99.90;;;;;;4999768;28;20396;-84
2022/10/18 12:31:47;;;;;;;11.85;3.38;;;16.70;99.90;;;;;;4992827;28;20405;-82
2022/10/18 12:34:36;;;;;;;13.75;3.30;;;16.70;99.90;;;;;;4993126;28;20465;-81
2022/10/18 12:37:24;;;;;;;14.73;3.10;;;16.70;99.90;;;;;;4992904;28;20888;-83
2022/10/18 12:40:16;;;;;;;16.33;3.33;;;16.70;99.90;;;;;;4993004;28;20387;-82
2022/10/18 12:42:46;;;;;;;17.42;3.70;;;16.80;99.90;;;;;;4998807;28;20404;-83
2022/10/18 12:45:19;;;;;;;15.65;3.70;;;16.80;99.90;;;;;;4999508;28;20392;-83
2022/10/18 12:47:47;;;;;;;14.88;3.60;;;16.80;99.90;;;;;;4999690;28;20405;-80
2022/10/18 12:50:43;;;;;;;13.68;3.58;;;16.70;99.90;;;;;;4998743;28;20460;-83
2022/10/18 12:53:13;;;;;;;10.90;3.40;;;16.70;99.90;;;;;;5003873;28;20400;-82
2022/10/18 12:55:42;;;;;;;11.02;3.53;;;16.70;99.90;;;;;;5013325;28;20385;-79
2022/10/18 12:58:15;;;;;;;11.20;3.50;;;16.70;99.90;;;;;;5012340;28;20798;-82
2022/10/18 13:00:42;;;;;;;11.00;3.90;;;16.70;99.90;;;;;;5013419;28;20392;-79
2022/10/18 13:03:17;;;;;;;12.23;4.10;;;16.70;99.90;;;;;;4981736;28;20388;-80
2022/10/18 13:05:50;;;;;;;14.23;4.63;;;16.70;99.90;;;;;;5012905;28;20385;-81
2022/10/18 13:08:23;;;;;;;12.70;4.68;;;16.70;99.90;;;;;;5008422;28;20435;-82
2022/10/18 13:11:10;;;;;;;10.52;4.13;;;16.70;99.90;;;;;;4994121;28;20393;-83
2022/10/18 13:13:37;;;;;;;12.80;3.70;;;16.70;99.90;;;;;;5014574;28;20376;-78
2022/10/18 13:16:22;;;;;;;13.10;4.00;;;16.80;99.90;;;;;;5017007;28;20467;-83
2022/10/18 13:18:57;;;;;;;9.27;3.78;;;16.80;99.90;;;;;;5017349;28;20384;-79